createdAt,value
2023-05-02T00:00:52.869Z,14.70
2023-05-02T00:03:19.790Z,14.70
2023-05-02T00:05:46.724Z,14.60
2023-05-02T00:08:13.719Z,14.70
2023-05-02T00:10:40.502Z,14.60
2023-05-02T00:13:07.222Z,14.60
2023-05-02T00:15:33.953Z,14.60
2023-05-02T00:18:00.846Z,14.60
2023-05-02T00:20:27.589Z,14.60
2023-05-02T00:22:56.353Z,14.60
2023-05-02T00:25:23.623Z,14.60
2023-05-02T00:27:51.231Z,14.60
2023-05-02T00:30:18.681Z,14.60
2023-05-02T00:32:45.823Z,14.70
2023-05-02T00:35:12.890Z,14.60
2023-05-02T00:37:39.755Z,14.60
2023-05-02T00:40:08.122Z,14.60
2023-05-02T00:42:36.401Z,14.70
2023-05-02T00:45:06.812Z,14.70
2023-05-02T00:47:34.154Z,14.70
2023-05-02T00:50:01.593Z,14.70
2023-05-02T00:52:28.973Z,14.70
2023-05-02T00:54:55.941Z,14.80
2023-05-02T00:57:22.950Z,14.80
2023-05-02T00:59:50.869Z,14.70
2023-05-02T01:02:40.907Z,14.70
2023-05-02T01:05:17.427Z,14.70
2023-05-02T01:08:22.343Z,14.60
2023-05-02T01:10:59.548Z,14.70
2023-05-02T01:13:33.834Z,14.70
2023-05-02T01:16:03.570Z,14.70
2023-05-02T01:18:35.602Z,14.70
2023-05-02T01:21:07.039Z,14.70
2023-05-02T01:24:05.504Z,14.70
2023-05-02T01:26:45.520Z,14.60
2023-05-02T01:29:15.381Z,14.60
2023-05-02T01:31:46.061Z,14.50
2023-05-02T01:34:13.040Z,14.60
2023-05-02T01:36:44.479Z,14.60
2023-05-02T01:39:19.078Z,14.60
2023-05-02T01:41:49.155Z,14.60
2023-05-02T01:44:17.166Z,14.60
2023-05-02T01:46:45.276Z,14.60
2023-05-02T01:49:12.193Z,14.60
2023-05-02T01:51:46.039Z,14.60
2023-05-02T01:54:15.401Z,14.60
2023-05-02T01:56:43.692Z,14.60
2023-05-02T01:59:16.670Z,14.60
2023-05-02T02:01:45.161Z,14.60
2023-05-02T02:04:14.957Z,14.60
2023-05-02T02:06:47.330Z,14.40
2023-05-02T02:09:14.540Z,14.60
2023-05-02T02:11:51.374Z,14.60
2023-05-02T02:14:21.943Z,14.50
2023-05-02T02:16:50.870Z,14.60
2023-05-02T02:19:18.297Z,14.60
2023-05-02T02:21:48.012Z,14.60
2023-05-02T02:24:18.701Z,14.60
2023-05-02T02:26:46.407Z,14.60
2023-05-02T02:29:13.205Z,14.50
2023-05-02T02:31:39.904Z,14.50
2023-05-02T02:34:07.218Z,14.40
2023-05-02T02:36:41.859Z,14.50
2023-05-02T02:39:32.681Z,14.50
2023-05-02T02:42:25.549Z,14.50
2023-05-02T02:44:59.297Z,14.50
2023-05-02T02:48:18.202Z,14.50
2023-05-02T02:51:12.743Z,14.50
2023-05-02T02:53:51.668Z,14.50
2023-05-02T02:56:27.858Z,14.40
2023-05-02T02:59:06.514Z,14.40
2023-05-02T03:01:36.418Z,14.40
2023-05-02T03:04:07.686Z,14.40
2023-05-02T03:06:34.865Z,14.50
2023-05-02T03:09:01.787Z,14.40
2023-05-02T03:11:29.589Z,14.50
2023-05-02T03:13:56.308Z,14.30
2023-05-02T03:16:35.641Z,14.40
2023-05-02T03:19:03.464Z,14.40
2023-05-02T03:21:33.499Z,14.30
2023-05-02T03:24:01.422Z,14.30
2023-05-02T03:26:28.674Z,14.30
2023-05-02T03:28:56.599Z,14.30
2023-05-02T03:31:26.242Z,14.30
2023-05-02T03:33:53.431Z,14.30
2023-05-02T03:36:20.117Z,14.20
2023-05-02T03:38:46.864Z,14.20
2023-05-02T03:41:13.624Z,14.20
2023-05-02T03:43:40.395Z,14.20
2023-05-02T03:46:09.524Z,14.20
2023-05-02T03:48:36.701Z,14.10
2023-05-02T03:51:05.734Z,14.20
2023-05-02T03:53:32.556Z,14.20
2023-05-02T03:55:59.392Z,14.30
2023-05-02T03:58:26.905Z,14.20
2023-05-02T04:00:54.066Z,14.30
2023-05-02T04:03:21.827Z,14.20
2023-05-02T04:05:48.524Z,14.20
2023-05-02T04:08:15.248Z,14.30
2023-05-02T04:10:41.907Z,14.30
2023-05-02T04:13:08.556Z,14.30
2023-05-02T04:15:35.349Z,14.30
2023-05-02T04:18:02.173Z,14.30
2023-05-02T04:20:29.862Z,14.30
2023-05-02T04:22:56.612Z,14.20
2023-05-02T04:25:23.339Z,14.20
2023-05-02T04:27:50.099Z,14.10
2023-05-02T04:30:16.813Z,14.10
2023-05-02T04:32:43.459Z,14.10
2023-05-02T04:35:10.808Z,14.20
2023-05-02T04:37:38.053Z,14.20
2023-05-02T04:40:06.184Z,14.10
2023-05-02T04:42:33.029Z,14.20
2023-05-02T04:44:59.819Z,14.20
2023-05-02T04:47:26.667Z,14.30
2023-05-02T04:49:53.389Z,14.30
2023-05-02T04:52:20.159Z,14.40
2023-05-02T04:54:46.866Z,14.20
2023-05-02T04:57:13.570Z,14.30
2023-05-02T04:59:40.554Z,14.30
2023-05-02T05:02:08.296Z,14.20
2023-05-02T05:04:35.298Z,14.30
2023-05-02T05:07:02.086Z,14.20
2023-05-02T05:09:28.809Z,14.30
2023-05-02T05:11:55.485Z,14.30
2023-05-02T05:14:22.554Z,14.20
2023-05-02T05:16:49.497Z,14.30
2023-05-02T05:19:16.351Z,14.30
2023-05-02T05:21:43.310Z,14.30
2023-05-02T05:24:10.030Z,14.40
2023-05-02T05:26:37.432Z,14.40
2023-05-02T05:29:04.167Z,14.40
2023-05-02T05:31:31.339Z,14.50
2023-05-02T05:33:58.303Z,14.50
2023-05-02T05:36:25.625Z,14.50
2023-05-02T05:38:52.367Z,14.40
2023-05-02T05:41:19.078Z,14.50
2023-05-02T05:43:45.846Z,14.50
2023-05-02T05:46:12.496Z,14.50
2023-05-02T05:48:39.124Z,14.50
2023-05-02T05:51:07.548Z,14.60
2023-05-02T05:53:34.531Z,14.60
2023-05-02T05:56:09.785Z,14.70
2023-05-02T05:58:36.803Z,14.70
2023-05-02T06:01:03.638Z,14.70
2023-05-02T06:03:30.971Z,14.70
2023-05-02T06:05:57.839Z,14.80
2023-05-02T06:08:24.567Z,14.80
2023-05-02T06:10:51.273Z,14.90
2023-05-02T06:13:17.902Z,15.00
2023-05-02T06:15:44.611Z,15.00
2023-05-02T06:18:11.504Z,14.90
2023-05-02T06:20:38.207Z,15.00
2023-05-02T06:23:04.912Z,15.00
2023-05-02T06:25:33.973Z,15.10
2023-05-02T06:28:00.700Z,15.10
2023-05-02T06:30:27.346Z,15.10
2023-05-02T06:32:54.429Z,15.10
2023-05-02T06:35:21.146Z,15.20
2023-05-02T06:37:47.870Z,15.20
2023-05-02T06:40:14.925Z,15.20
2023-05-02T06:42:41.578Z,15.30
2023-05-02T06:45:08.473Z,15.30
2023-05-02T06:47:35.386Z,15.40
2023-05-02T06:50:02.578Z,15.50
2023-05-02T06:52:29.463Z,15.70
2023-05-02T06:54:56.192Z,15.70
2023-05-02T06:57:23.125Z,15.90
2023-05-02T06:59:49.837Z,16.10
2023-05-02T07:02:16.750Z,16.20
2023-05-02T07:04:43.699Z,16.30
2023-05-02T07:07:10.506Z,16.40
2023-05-02T07:09:37.284Z,16.50
2023-05-02T07:12:06.743Z,16.60
2023-05-02T07:14:33.799Z,16.70
2023-05-02T07:17:00.736Z,16.70
2023-05-02T07:19:27.494Z,16.90
2023-05-02T07:21:54.336Z,16.90
2023-05-02T07:24:21.075Z,16.90
2023-05-02T07:26:47.710Z,16.90
2023-05-02T07:29:14.359Z,16.90
2023-05-02T07:31:41.234Z,16.90
2023-05-02T07:34:09.233Z,16.90
2023-05-02T07:36:35.908Z,17.00
2023-05-02T07:39:02.631Z,16.80
2023-05-02T07:41:29.265Z,16.80
2023-05-02T07:43:57.547Z,16.90
2023-05-02T07:46:24.576Z,17.00
2023-05-02T07:48:51.321Z,17.00
2023-05-02T07:51:20.258Z,17.10
2023-05-02T07:53:47.509Z,17.00
2023-05-02T07:56:14.196Z,17.00
2023-05-02T07:58:40.861Z,17.00
2023-05-02T08:01:08.371Z,17.00
2023-05-02T08:03:35.236Z,16.80
2023-05-02T08:06:02.423Z,16.70
2023-05-02T08:08:29.240Z,16.80
2023-05-02T08:10:55.883Z,16.90
2023-05-02T08:13:22.687Z,16.90
2023-05-02T08:15:49.496Z,16.90
2023-05-02T08:18:16.322Z,17.00
2023-05-02T08:20:43.614Z,17.00
2023-05-02T08:23:10.728Z,17.20
2023-05-02T08:25:37.961Z,17.30
2023-05-02T08:28:04.697Z,17.40
2023-05-02T08:30:31.488Z,17.30
2023-05-02T08:32:58.214Z,17.40
2023-05-02T08:35:24.988Z,17.30
2023-05-02T08:37:51.712Z,17.40
2023-05-02T08:40:33.594Z,17.60
2023-05-02T08:43:07.429Z,17.70
2023-05-02T08:52:50.658Z,17.80
2023-05-02T08:55:17.835Z,17.50
2023-05-02T08:57:44.909Z,17.40
2023-05-02T09:00:12.395Z,17.40
2023-05-02T09:02:51.790Z,17.50
2023-05-02T09:05:23.690Z,17.60
2023-05-02T09:07:52.168Z,17.40
2023-05-02T09:10:19.139Z,17.30
2023-05-02T09:12:45.964Z,17.20
2023-05-02T09:15:17.703Z,17.30
2023-05-02T09:17:47.389Z,17.20
2023-05-02T09:20:16.082Z,17.10
2023-05-02T09:22:51.171Z,17.20
2023-05-02T09:25:19.535Z,17.20
2023-05-02T09:27:56.924Z,17.10
2023-05-02T09:30:25.578Z,17.30
2023-05-02T09:32:55.485Z,17.50
2023-05-02T09:35:26.023Z,17.60
2023-05-02T09:37:54.693Z,17.50
2023-05-02T09:40:21.773Z,17.60
2023-05-02T09:42:48.629Z,17.80
2023-05-02T09:45:22.469Z,18.00
2023-05-02T09:47:50.046Z,18.20
2023-05-02T09:50:36.094Z,18.80
2023-05-02T09:53:07.449Z,19.30
2023-05-02T09:55:34.506Z,19.70
2023-05-02T09:58:01.639Z,20.20
2023-05-02T10:00:45.075Z,20.50
2023-05-02T10:03:16.908Z,20.80
2023-05-02T10:05:45.238Z,20.90
2023-05-02T10:08:13.509Z,21.10
2023-05-02T10:10:41.592Z,21.00
2023-05-02T10:13:10.052Z,21.30
2023-05-02T10:15:43.665Z,21.00
2023-05-02T10:18:16.958Z,21.20
2023-05-02T10:20:57.634Z,21.40
2023-05-02T10:23:30.762Z,21.30
2023-05-02T10:26:01.575Z,21.70
2023-05-02T10:28:30.084Z,22.00
2023-05-02T10:30:58.360Z,21.80
2023-05-02T10:33:26.157Z,21.40
2023-05-02T10:35:53.042Z,21.10
2023-05-02T10:38:24.880Z,21.10
2023-05-02T10:41:04.927Z,21.30
2023-05-02T10:43:34.651Z,21.30
2023-05-02T10:46:03.631Z,21.30
2023-05-02T10:48:31.102Z,21.40
2023-05-02T10:51:01.521Z,21.40
2023-05-02T10:53:32.321Z,21.50
2023-05-02T10:56:22.041Z,21.30
2023-05-02T10:58:50.841Z,21.10
2023-05-02T11:01:27.284Z,21.00
2023-05-02T11:04:01.547Z,21.00
2023-05-02T11:06:31.045Z,20.80
2023-05-02T11:09:16.193Z,20.50
2023-05-02T11:11:44.668Z,20.80
2023-05-02T11:14:13.968Z,21.10
2023-05-02T11:17:02.108Z,21.30
2023-05-02T11:19:31.430Z,21.40
2023-05-02T11:22:19.066Z,21.30
2023-05-02T11:24:50.051Z,21.40
2023-05-02T11:27:31.764Z,21.60
2023-05-02T11:30:00.565Z,21.70
2023-05-02T11:32:51.990Z,21.90
2023-05-02T11:35:26.902Z,22.40
2023-05-02T11:37:54.588Z,23.00
2023-05-02T11:40:21.852Z,23.30
2023-05-02T11:42:48.561Z,23.50
2023-05-02T11:45:15.700Z,23.40
2023-05-02T11:47:43.683Z,23.20
2023-05-02T11:50:10.848Z,22.90
2023-05-02T11:52:39.609Z,22.60
2023-05-02T11:55:09.724Z,22.60
2023-05-02T11:57:38.146Z,22.40
2023-05-02T12:00:06.312Z,22.30
2023-05-02T12:02:41.502Z,22.40
2023-05-02T12:05:10.395Z,22.60
2023-05-02T12:07:45.773Z,23.10
2023-05-02T12:10:14.275Z,23.30
2023-05-02T12:12:43.748Z,23.10
2023-05-02T12:15:12.133Z,22.70
2023-05-02T12:17:43.988Z,23.10
2023-05-02T12:20:12.380Z,23.60
2023-05-02T12:22:39.353Z,23.80
2023-05-02T12:25:06.900Z,24.20
2023-05-02T12:27:34.670Z,24.40
2023-05-02T12:30:01.819Z,24.40
2023-05-02T12:32:33.696Z,24.70
2023-05-02T12:35:04.165Z,25.00
2023-05-02T12:37:31.036Z,24.90
2023-05-02T12:39:57.860Z,25.10
2023-05-02T12:42:25.970Z,25.20
2023-05-02T12:44:53.268Z,24.50
2023-05-02T12:47:21.677Z,24.20
2023-05-02T12:49:59.347Z,24.60
2023-05-02T12:52:57.509Z,25.10
2023-05-02T12:55:25.746Z,25.50
2023-05-02T12:58:07.117Z,25.40
2023-05-02T13:00:36.941Z,24.80
2023-05-02T13:03:04.119Z,24.80
2023-05-02T13:05:31.055Z,25.50
2023-05-02T13:07:59.235Z,26.30
2023-05-02T13:10:27.297Z,26.90
2023-05-02T13:12:54.969Z,26.80
2023-05-02T13:15:22.215Z,26.20
2023-05-02T13:17:50.964Z,26.00
2023-05-02T13:20:17.782Z,25.40
2023-05-02T13:22:44.493Z,25.60
2023-05-02T13:25:11.469Z,25.90
2023-05-02T13:27:38.165Z,25.90
2023-05-02T13:30:08.810Z,24.90
2023-05-02T13:32:36.238Z,24.00
2023-05-02T13:35:04.000Z,24.40
2023-05-02T13:37:31.214Z,25.50
2023-05-02T13:39:58.033Z,28.00
2023-05-02T13:42:24.847Z,29.80
2023-05-02T13:44:51.577Z,29.70
2023-05-02T13:47:18.302Z,28.40
2023-05-02T13:49:45.007Z,26.20
2023-05-02T13:52:11.729Z,25.00
2023-05-02T13:54:38.612Z,24.30
2023-05-02T13:57:05.638Z,23.70
2023-05-02T13:59:32.342Z,23.30
2023-05-02T14:01:59.150Z,23.10
2023-05-02T14:04:25.938Z,23.40
2023-05-02T14:06:52.687Z,25.90
2023-05-02T14:09:20.235Z,28.50
2023-05-02T14:11:47.544Z,29.30
2023-05-02T14:14:14.626Z,30.10
2023-05-02T14:16:41.505Z,30.40
2023-05-02T14:19:08.318Z,30.90
2023-05-02T14:21:35.083Z,31.10
2023-05-02T14:24:01.740Z,31.50
2023-05-02T14:26:28.514Z,31.40
2023-05-02T14:28:55.175Z,31.70
2023-05-02T14:31:21.934Z,30.50
2023-05-02T14:33:48.780Z,28.80
2023-05-02T14:36:15.410Z,28.30
2023-05-02T14:38:42.494Z,27.10
2023-05-02T14:41:10.232Z,26.50
2023-05-02T14:43:37.170Z,27.40
2023-05-02T14:46:03.937Z,28.10
2023-05-02T14:48:30.734Z,28.70
2023-05-02T14:50:58.848Z,28.80
2023-05-02T14:53:25.572Z,28.90
2023-05-02T14:55:52.504Z,29.40
2023-05-02T14:58:20.692Z,29.90
2023-05-02T15:00:48.156Z,29.70
2023-05-02T15:03:15.284Z,29.70
2023-05-02T15:05:42.238Z,29.80
2023-05-02T15:08:09.038Z,29.60
2023-05-02T15:10:39.368Z,28.30
2023-05-02T15:13:06.745Z,27.60
2023-05-02T15:15:33.638Z,27.30
2023-05-02T15:18:00.418Z,27.40
2023-05-02T15:20:27.181Z,27.30
2023-05-02T15:22:53.833Z,27.20
2023-05-02T15:25:20.498Z,26.90
2023-05-02T15:27:47.143Z,26.70
2023-05-02T15:30:15.043Z,26.30
2023-05-02T15:32:43.399Z,26.20
2023-05-02T15:35:11.618Z,25.80
2023-05-02T15:37:38.311Z,24.70
2023-05-02T15:40:06.660Z,23.90
2023-05-02T15:42:36.892Z,23.10
2023-05-02T15:45:04.293Z,22.70
2023-05-02T15:47:31.151Z,22.80
2023-05-02T15:49:58.445Z,23.30
2023-05-02T15:52:25.255Z,23.80
2023-05-02T15:54:52.024Z,24.10
2023-05-02T15:57:19.606Z,24.10
2023-05-02T15:59:46.526Z,23.70
2023-05-02T16:02:13.418Z,22.80
2023-05-02T16:04:40.171Z,22.30
2023-05-02T16:07:06.866Z,22.20
2023-05-02T16:09:33.621Z,22.00
2023-05-02T16:12:01.481Z,21.90
2023-05-02T16:14:28.924Z,21.70
2023-05-02T16:17:01.762Z,21.80
2023-05-02T16:19:28.570Z,21.90
2023-05-02T16:21:55.301Z,22.00
2023-05-02T16:24:22.118Z,21.80
2023-05-02T16:26:48.989Z,21.80
2023-05-02T16:29:15.692Z,21.80
2023-05-02T16:31:44.365Z,21.80
2023-05-02T16:34:11.577Z,21.60
2023-05-02T16:36:38.277Z,21.60
2023-05-02T16:39:05.293Z,21.70
2023-05-02T16:41:34.252Z,21.50
2023-05-02T16:44:00.887Z,21.50
2023-05-02T16:46:27.927Z,21.50
2023-05-02T16:48:54.553Z,21.50
2023-05-02T16:51:21.248Z,21.30
2023-05-02T16:53:47.981Z,21.20
2023-05-02T16:56:14.650Z,21.30
2023-05-02T16:58:41.431Z,21.30
2023-05-02T17:01:08.519Z,21.30
2023-05-02T17:03:35.336Z,21.30
2023-05-02T17:06:02.354Z,21.30
2023-05-02T17:08:29.546Z,20.90
2023-05-02T17:10:56.354Z,20.90
2023-05-02T17:13:23.135Z,20.90
2023-05-02T17:15:50.266Z,20.90
2023-05-02T17:18:17.056Z,21.00
2023-05-02T17:20:45.927Z,20.90
2023-05-02T17:23:13.116Z,20.80
2023-05-02T17:25:39.845Z,20.60
2023-05-02T17:28:06.675Z,20.60
2023-05-02T17:30:33.988Z,20.50
2023-05-02T17:33:01.287Z,20.40
2023-05-02T17:35:28.152Z,20.40
2023-05-02T17:37:55.480Z,20.20
2023-05-02T17:40:22.293Z,20.10
2023-05-02T17:42:49.289Z,20.10
2023-05-02T17:45:16.761Z,20.10
2023-05-02T17:47:43.522Z,20.00
2023-05-02T17:50:10.503Z,20.00
2023-05-02T17:52:37.311Z,20.00
2023-05-02T17:55:04.323Z,20.00
2023-05-02T17:57:31.084Z,19.90
2023-05-02T17:59:59.824Z,19.90
2023-05-02T18:02:29.747Z,19.70
2023-05-02T18:04:58.027Z,19.60
2023-05-02T18:07:25.146Z,19.60
2023-05-02T18:09:52.052Z,19.50
2023-05-02T18:12:19.185Z,19.40
2023-05-02T18:14:46.016Z,19.40
2023-05-02T18:17:12.820Z,19.20
2023-05-02T18:19:39.952Z,19.20
2023-05-02T18:22:07.297Z,19.10
2023-05-02T18:24:34.071Z,19.00
2023-05-02T18:27:00.944Z,18.80
2023-05-02T18:29:27.721Z,18.70
2023-05-02T18:31:54.907Z,18.70
2023-05-02T18:34:21.721Z,18.70
2023-05-02T18:36:48.377Z,18.70
2023-05-02T18:39:15.101Z,18.70
2023-05-02T18:41:41.803Z,18.60
2023-05-02T18:44:10.197Z,18.70
2023-05-02T18:46:37.344Z,18.70
2023-05-02T18:49:04.278Z,18.70
2023-05-02T18:51:31.019Z,18.70
2023-05-02T18:53:57.738Z,18.70
2023-05-02T18:56:25.375Z,18.40
2023-05-02T18:58:56.632Z,18.40
2023-05-02T19:01:24.121Z,18.50
2023-05-02T19:03:52.870Z,18.50
2023-05-02T19:06:20.420Z,18.60
2023-05-02T19:08:48.418Z,18.60
2023-05-02T19:11:15.214Z,18.40
2023-05-02T19:13:42.185Z,18.30
2023-05-02T19:16:13.635Z,18.20
2023-05-02T19:18:40.960Z,18.20
2023-05-02T19:21:15.936Z,18.20
2023-05-02T19:23:44.562Z,18.30
2023-05-02T19:26:15.551Z,18.30
2023-05-02T19:28:42.967Z,18.20
2023-05-02T19:31:17.792Z,18.20
2023-05-02T19:33:51.977Z,18.20
2023-05-02T19:36:19.982Z,18.10
2023-05-02T19:38:51.040Z,18.10
2023-05-02T19:41:18.489Z,18.00
2023-05-02T19:43:45.689Z,17.90
2023-05-02T19:46:14.287Z,18.00
2023-05-02T19:48:41.513Z,17.90
2023-05-02T19:51:08.264Z,17.80
2023-05-02T19:53:37.170Z,17.80
2023-05-02T19:56:05.357Z,17.80
2023-05-02T19:58:32.209Z,17.80
2023-05-02T20:00:59.733Z,17.80
2023-05-02T20:03:26.648Z,17.70
2023-05-02T20:05:53.454Z,17.50
2023-05-02T20:08:21.645Z,17.50
2023-05-02T20:10:50.240Z,17.60
2023-05-02T20:13:16.902Z,17.60
2023-05-02T20:15:43.785Z,17.60
2023-05-02T20:18:10.743Z,17.60
2023-05-02T20:20:38.634Z,17.60
2023-05-02T20:23:05.346Z,17.60
2023-05-02T20:25:32.192Z,17.70
2023-05-02T20:27:59.068Z,17.70
2023-05-02T20:30:25.838Z,17.70
2023-05-02T20:32:53.024Z,17.70
2023-05-02T20:35:20.064Z,17.70
2023-05-02T20:37:46.821Z,17.70
2023-05-02T20:40:13.728Z,17.60
2023-05-02T20:42:41.426Z,17.70
2023-05-02T20:45:09.166Z,17.70
2023-05-02T20:47:36.026Z,17.70
2023-05-02T20:50:03.320Z,17.60
2023-05-02T20:52:30.908Z,17.60
2023-05-02T20:54:57.860Z,17.50
2023-05-02T20:57:24.501Z,17.50
2023-05-02T20:59:51.413Z,17.50
2023-05-02T21:02:18.221Z,17.50
2023-05-02T21:04:45.018Z,17.40
2023-05-02T21:07:11.819Z,17.30
2023-05-02T21:09:38.874Z,17.30
2023-05-02T21:12:06.251Z,17.30
2023-05-02T21:14:33.588Z,17.30
2023-05-02T21:17:00.561Z,17.40
2023-05-02T21:19:27.193Z,17.40
2023-05-02T21:21:53.922Z,17.30
2023-05-02T21:24:20.772Z,17.20
2023-05-02T21:26:47.466Z,17.20
2023-05-02T21:29:14.944Z,17.20
2023-05-02T21:31:41.783Z,17.00
2023-05-02T21:34:08.597Z,17.00
2023-05-02T21:36:35.609Z,17.00
2023-05-02T21:39:02.333Z,17.00
2023-05-02T21:41:29.149Z,16.90
2023-05-02T21:43:55.825Z,16.80
2023-05-02T21:46:22.707Z,16.80
2023-05-02T21:48:50.044Z,16.60
2023-05-02T21:51:16.844Z,16.60
2023-05-02T21:53:43.730Z,16.60
2023-05-02T21:56:10.772Z,16.60
2023-05-02T21:58:37.492Z,16.50
2023-05-02T22:01:04.493Z,16.50
2023-05-02T22:03:33.676Z,16.50
2023-05-02T22:06:06.375Z,16.50
2023-05-02T22:08:33.714Z,16.50
2023-05-02T22:11:00.489Z,16.40
2023-05-02T22:13:27.305Z,16.30
2023-05-02T22:15:54.075Z,16.20
2023-05-02T22:18:20.880Z,16.40
2023-05-02T22:20:48.340Z,16.40
2023-05-02T22:23:15.351Z,16.40
2023-05-02T22:25:44.935Z,16.40
2023-05-02T22:28:12.269Z,16.30
2023-05-02T22:30:39.542Z,16.20
2023-05-02T22:33:07.397Z,16.20
2023-05-02T22:35:34.268Z,16.10
2023-05-02T22:38:05.033Z,15.90
2023-05-02T22:40:32.004Z,16.00
2023-05-02T22:42:59.121Z,15.80
2023-05-02T22:45:27.094Z,15.90
2023-05-02T22:47:53.929Z,16.00
2023-05-02T22:50:21.502Z,16.20
2023-05-02T22:52:49.057Z,16.00
2023-05-02T22:55:16.018Z,16.00
2023-05-02T22:57:43.058Z,16.20
2023-05-02T23:00:10.850Z,16.10
2023-05-02T23:02:38.026Z,16.20
2023-05-02T23:05:06.436Z,16.20
2023-05-02T23:07:33.334Z,16.30
2023-05-02T23:10:00.311Z,16.30
2023-05-02T23:12:27.925Z,16.30
2023-05-02T23:14:54.701Z,16.10
2023-05-02T23:17:21.751Z,16.10
2023-05-02T23:19:50.002Z,16.00
2023-05-02T23:22:17.027Z,16.00
2023-05-02T23:24:47.818Z,16.10
2023-05-02T23:27:15.200Z,16.10
2023-05-02T23:29:41.921Z,16.10
2023-05-02T23:32:08.773Z,16.10
2023-05-02T23:34:39.050Z,16.10
2023-05-02T23:37:06.930Z,16.10
2023-05-02T23:39:33.781Z,16.10
2023-05-02T23:42:01.907Z,16.00
2023-05-02T23:44:28.597Z,16.00
2023-05-02T23:46:55.384Z,16.20
2023-05-02T23:49:22.117Z,16.20
2023-05-02T23:51:48.962Z,16.30
2023-05-02T23:54:16.243Z,16.10
2023-05-02T23:56:43.126Z,16.00
2023-05-02T23:59:10.940Z,16.00
